ペトロパブロフスク・カムチャツキー の空港の天気 - METARとTAF

ペトロパブロフスク・カムチャツキー空港 ( UHPP / PKC ) - ロシア ペトロパブロフスク・カムチャツキー
飛行場実況気象(Metar)
観測時間11/22 23:00 MAGT (11/22 12:00 UTC)
風向・風速不定 1m/s
視程10km以上
天気現象
なし
気温-7℃
湿度73%
気圧1020hPa
METARUHPP 221200Z VRB01MPS 9999 NSC M07/M11 Q1020 R34L/CLRD70 NOSIG RMK QFE761/1015
過去の天気等 Google飛行場航空写真 Wunderground天気予報

過去48時間のMETAR

飛行場予報(TAF)
発表時間: 11/22 21:41 MAGT (11/22 10:41 UTC)
予報対象時間: 22日23時 MAGT ~ 24日5時 MAGT
風向・風速北 3m/s 瞬間風速 12m/s
視程10km以上
全天の8割程度の雲 雲底高度 1,220m
23日7時 MAGT から
風向・風速南南西 3m/s 瞬間風速 14m/s
視程10km以上
全天の8割程度の積乱雲 雲底高度 760m
23日13時 MAGT から
風向・風速南 4m/s 瞬間風速 16m/s
視程10km以上
全天の8割程度の積乱雲 雲底高度 610m
23日15時 MAGT ~ 23日21時 MAGT に一時的に
視程3,100m
天気現象弱いしゅう雪雨 もや
全天の8割程度の雲 雲底高度 120m
全天を覆う積乱雲 雲底高度 460m
23日21時 MAGT から
風向・風速南南東 8m/s 瞬間風速 18m/s
視程3,100m
天気現象弱いしゅう雨
全天の8割程度の雲 雲底高度 340m
全天を覆う積乱雲 雲底高度 610m
23日21時 MAGT ~ 24日5時 MAGT に一時的に
風向・風速南東 10m/s 瞬間風速 21m/s
視程1,000m
天気現象しゅう雪雨
全天を覆う雲 鉛直視程 90m
TAF UHPP 221041Z 2212/2318 35003G12MPS 9999 BKN040
FM222000 21003G14MPS 9999 BKN025CB
FM230200 17004G16MPS 9999 BKN020CB
TEMPO 2304/2310 3100 -SHSNRA BR BKN004 OVC015CB
FM231000 15008G18MPS 3100 -SHRA BKN011 OVC020CB
TEMPO 2310/2318 13010G21MPS 1000 SHSNRA VV003